createdAt,value
2023-02-04T00:00:24.258Z,7.05
2023-02-04T00:02:52.755Z,6.25
2023-02-04T00:05:22.017Z,6.60
2023-02-04T00:07:49.741Z,7.20
2023-02-04T00:10:18.891Z,6.57
2023-02-04T00:12:46.601Z,7.00
2023-02-04T00:15:14.301Z,6.68
2023-02-04T00:17:42.005Z,6.35
2023-02-04T00:20:10.613Z,7.28
2023-02-04T00:22:39.728Z,6.10
2023-02-04T00:25:08.746Z,7.13
2023-02-04T00:27:36.518Z,6.95
2023-02-04T00:30:04.391Z,6.68
2023-02-04T00:32:32.080Z,6.38
2023-02-04T00:34:59.766Z,5.72
2023-02-04T00:37:27.521Z,5.93
2023-02-04T00:39:56.655Z,6.53
2023-02-04T00:42:24.497Z,6.68
2023-02-04T00:44:52.314Z,6.13
2023-02-04T00:47:20.027Z,6.68
2023-02-04T00:49:47.798Z,6.75
2023-02-04T00:52:15.474Z,6.20
2023-02-04T00:54:43.132Z,6.18
2023-02-04T00:57:12.232Z,6.82
2023-02-04T00:59:39.867Z,6.05
2023-02-04T01:02:07.660Z,6.93
2023-02-04T01:04:35.456Z,7.05
2023-02-04T01:07:03.211Z,6.60
2023-02-04T01:09:30.932Z,6.20
2023-02-04T01:11:58.602Z,5.82
2023-02-04T01:14:27.709Z,6.85
2023-02-04T01:16:55.375Z,6.65
2023-02-04T01:19:23.076Z,6.30
2023-02-04T01:21:50.751Z,6.90
2023-02-04T01:24:18.370Z,6.40
2023-02-04T01:26:46.026Z,6.38
2023-02-04T01:29:13.782Z,6.68
2023-02-04T01:31:42.889Z,6.22
2023-02-04T01:34:10.618Z,6.65
2023-02-04T01:36:38.327Z,7.40
2023-02-04T01:39:06.423Z,6.50
2023-02-04T01:41:34.158Z,6.68
2023-02-04T01:44:01.823Z,6.47
2023-02-04T01:46:29.548Z,6.30
2023-02-04T01:48:58.647Z,6.60
2023-02-04T01:51:28.784Z,6.60
2023-02-04T01:53:56.940Z,6.82
2023-02-04T01:56:26.813Z,6.18
2023-02-04T01:58:55.896Z,6.47
2023-02-04T02:01:37.675Z,6.63
2023-02-04T02:04:06.895Z,6.50
2023-02-04T02:06:35.025Z,6.43
2023-02-04T02:09:03.060Z,6.72
2023-02-04T02:11:30.946Z,6.55
2023-02-04T02:13:58.648Z,6.22
2023-02-04T02:16:26.404Z,7.05
2023-02-04T02:18:54.574Z,6.88
2023-02-04T02:21:32.973Z,6.40
2023-02-04T02:24:03.464Z,6.38
2023-02-04T02:26:31.131Z,6.80
2023-02-04T02:28:58.860Z,6.50
2023-02-04T02:31:26.771Z,6.33
2023-02-04T02:33:54.527Z,5.82
2023-02-04T02:36:23.661Z,6.72
2023-02-04T02:38:51.428Z,6.25
2023-02-04T02:41:20.532Z,5.93
2023-02-04T02:43:48.274Z,5.97
2023-02-04T02:46:15.978Z,6.30
2023-02-04T02:48:43.729Z,6.43
2023-02-04T02:51:11.414Z,6.10
2023-02-04T02:53:39.106Z,6.17
2023-02-04T02:56:07.063Z,6.63
2023-02-04T02:58:37.317Z,5.97
2023-02-04T03:01:07.065Z,7.05
2023-02-04T03:03:36.555Z,6.05
2023-02-04T03:06:07.882Z,6.93
2023-02-04T03:08:35.883Z,6.82
2023-02-04T03:11:03.642Z,6.47
2023-02-04T03:13:31.549Z,6.68
2023-02-04T03:16:00.951Z,5.80
2023-02-04T03:18:28.646Z,6.77
2023-02-04T03:20:56.455Z,6.05
2023-02-04T03:23:24.266Z,6.53
2023-02-04T03:25:53.220Z,6.35
2023-02-04T03:28:21.131Z,6.03
2023-02-04T03:30:53.689Z,5.97
2023-02-04T03:33:23.273Z,6.32
2023-02-04T03:35:51.553Z,6.33
2023-02-04T03:38:20.010Z,5.80
2023-02-04T03:40:47.809Z,6.43
2023-02-04T03:43:15.473Z,6.43
2023-02-04T03:45:45.740Z,6.53
2023-02-04T03:48:13.737Z,6.88
2023-02-04T03:50:43.304Z,6.05
2023-02-04T03:53:11.076Z,5.22
2023-02-04T03:55:38.833Z,6.20
2023-02-04T03:58:06.931Z,6.53
2023-02-04T04:00:34.651Z,6.28
2023-02-04T04:03:02.464Z,6.20
2023-02-04T04:05:30.267Z,6.32
2023-02-04T04:07:59.510Z,6.78
2023-02-04T04:10:29.360Z,6.85
2023-02-04T04:12:57.381Z,6.53
2023-02-04T04:15:25.307Z,6.53
2023-02-04T04:17:53.030Z,6.38
2023-02-04T04:20:21.054Z,5.78
2023-02-04T04:22:48.687Z,6.33
2023-02-04T04:25:17.943Z,7.00
2023-02-04T04:27:45.633Z,5.85
2023-02-04T04:30:13.634Z,6.13
2023-02-04T04:32:41.358Z,6.28
2023-02-04T04:35:09.451Z,6.68
2023-02-04T04:37:37.183Z,6.50
2023-02-04T04:40:05.419Z,5.68
2023-02-04T04:42:34.439Z,6.53
2023-02-04T04:45:02.083Z,6.35
2023-02-04T04:47:29.747Z,6.20
2023-02-04T04:49:57.412Z,6.88
2023-02-04T04:52:25.121Z,5.57
2023-02-04T04:54:52.807Z,6.28
2023-02-04T04:57:20.505Z,6.25
2023-02-04T04:59:49.644Z,7.00
2023-02-04T05:02:17.322Z,6.03
2023-02-04T05:04:47.037Z,5.95
2023-02-04T05:07:14.815Z,6.43
2023-02-04T05:09:42.599Z,6.68
2023-02-04T05:12:10.332Z,6.15
2023-02-04T05:14:38.836Z,6.75
2023-02-04T05:17:08.192Z,5.40
2023-02-04T05:19:35.918Z,6.80
2023-02-04T05:22:03.574Z,6.70
2023-02-04T05:24:31.542Z,6.15
2023-02-04T05:26:59.323Z,6.82
2023-02-04T05:29:27.054Z,6.38
2023-02-04T05:31:54.831Z,6.40
2023-02-04T05:34:23.886Z,7.00
2023-02-04T05:36:51.647Z,6.20
2023-02-04T05:39:19.356Z,5.07
2023-02-04T05:41:47.082Z,6.00
2023-02-04T05:44:14.820Z,6.18
2023-02-04T05:46:42.652Z,7.13
2023-02-04T05:49:10.443Z,6.05
2023-02-04T05:51:39.573Z,6.10
2023-02-04T05:54:07.276Z,6.07
2023-02-04T05:56:34.954Z,6.40
2023-02-04T05:59:02.584Z,7.18
2023-02-04T06:01:30.311Z,5.93
2023-02-04T06:03:58.019Z,6.63
2023-02-04T06:06:25.833Z,6.53
2023-02-04T06:08:54.945Z,6.10
2023-02-04T06:11:22.695Z,6.25
2023-02-04T06:13:50.418Z,6.47
2023-02-04T06:16:18.119Z,6.28
2023-02-04T06:18:45.835Z,5.85
2023-02-04T06:21:13.539Z,7.03
2023-02-04T06:23:41.183Z,6.80
2023-02-04T06:26:10.356Z,6.43
2023-02-04T06:28:38.026Z,6.63
2023-02-04T06:31:06.145Z,6.55
2023-02-04T06:33:33.872Z,6.35
2023-02-04T06:36:01.644Z,6.85
2023-02-04T06:38:29.370Z,6.28
2023-02-04T06:40:57.347Z,6.25
2023-02-04T06:43:27.617Z,6.20
2023-02-04T06:45:55.432Z,6.63
2023-02-04T06:48:23.194Z,5.35
2023-02-04T06:50:50.919Z,6.53
2023-02-04T06:53:18.634Z,7.65
2023-02-04T06:55:46.325Z,7.32
2023-02-04T06:58:14.095Z,6.75
2023-02-04T07:00:43.219Z,7.43
2023-02-04T07:03:10.941Z,7.97
2023-02-04T07:05:38.633Z,6.80
2023-02-04T07:08:06.654Z,9.00
2023-02-04T07:10:34.666Z,10.68
2023-02-04T07:13:02.528Z,10.60
2023-02-04T07:15:31.510Z,11.07
2023-02-04T07:18:00.791Z,9.63
2023-02-04T07:20:28.559Z,7.70
2023-02-04T07:22:56.260Z,8.80
2023-02-04T07:25:24.030Z,7.68
2023-02-04T07:27:51.752Z,7.63
2023-02-04T07:30:19.552Z,7.37
2023-02-04T07:32:47.244Z,7.57
2023-02-04T07:35:17.647Z,8.43
2023-02-04T07:37:45.585Z,8.63
2023-02-04T07:40:13.898Z,9.23
2023-02-04T07:42:41.596Z,8.73
2023-02-04T07:45:10.072Z,9.57
2023-02-04T07:47:37.769Z,8.82
2023-02-04T07:50:05.977Z,8.90
2023-02-04T07:52:35.042Z,8.63
2023-02-04T07:55:02.756Z,7.73
2023-02-04T07:57:30.496Z,7.32
2023-02-04T07:59:59.159Z,7.70
2023-02-04T08:02:27.009Z,7.60
2023-02-04T08:04:54.795Z,7.40
2023-02-04T08:07:22.544Z,6.57
2023-02-04T08:09:51.632Z,7.40
2023-02-04T08:12:19.433Z,8.73
2023-02-04T08:14:47.116Z,8.38
2023-02-04T08:17:14.791Z,10.57
2023-02-04T08:19:42.520Z,9.32
2023-02-04T08:22:11.584Z,8.68
2023-02-04T08:24:39.249Z,7.43
2023-02-04T08:27:08.328Z,7.00
2023-02-04T08:29:36.019Z,7.15
2023-02-04T08:32:04.085Z,6.82
2023-02-04T08:34:32.347Z,7.85
2023-02-04T08:37:00.047Z,7.65
2023-02-04T08:39:27.754Z,8.30
2023-02-04T08:41:55.432Z,8.10
2023-02-04T08:44:24.550Z,7.80
2023-02-04T08:46:52.355Z,7.50
2023-02-04T08:49:20.023Z,7.63
2023-02-04T08:51:47.801Z,7.03
2023-02-04T08:54:15.546Z,7.67
2023-02-04T08:56:43.254Z,7.22
2023-02-04T08:59:10.945Z,7.97
2023-02-04T09:01:40.088Z,7.40
2023-02-04T09:04:07.785Z,7.95
2023-02-04T09:06:35.558Z,7.82
2023-02-04T09:09:03.243Z,8.07
2023-02-04T09:11:30.942Z,8.20
2023-02-04T09:13:58.607Z,8.73
2023-02-04T09:16:26.428Z,7.80
2023-02-04T09:18:55.953Z,8.18
2023-02-04T09:21:23.656Z,7.90
2023-02-04T09:23:51.378Z,7.28
2023-02-04T09:26:19.120Z,8.37
2023-02-04T09:28:47.904Z,8.73
2023-02-04T09:31:16.061Z,7.90
2023-02-04T09:33:43.871Z,8.48
2023-02-04T09:36:13.591Z,7.40
2023-02-04T09:38:41.313Z,7.37
2023-02-04T09:41:11.777Z,7.25
2023-02-04T09:43:41.920Z,8.48
2023-02-04T09:46:10.813Z,7.38
2023-02-04T09:48:38.796Z,8.18
2023-02-04T09:51:08.261Z,8.10
2023-02-04T09:53:37.920Z,7.88
2023-02-04T09:56:06.327Z,9.87
2023-02-04T09:58:35.051Z,9.00
2023-02-04T10:01:10.461Z,11.90
2023-02-04T10:03:38.261Z,10.57
2023-02-04T10:06:06.464Z,8.70
2023-02-04T10:08:34.901Z,8.55
2023-02-04T10:11:04.187Z,10.18
2023-02-04T10:13:33.262Z,8.77
2023-02-04T10:16:01.225Z,10.40
2023-02-04T10:18:30.612Z,10.90
2023-02-04T10:20:59.192Z,10.10
2023-02-04T10:23:26.990Z,12.23
2023-02-04T10:25:54.702Z,10.70
2023-02-04T10:28:34.684Z,9.38
2023-02-04T10:31:02.751Z,10.07
2023-02-04T10:33:31.835Z,10.13
2023-02-04T10:35:59.828Z,9.48
2023-02-04T10:38:27.801Z,9.90
2023-02-04T10:41:02.547Z,10.18
2023-02-04T10:43:31.786Z,13.10
2023-02-04T10:46:01.035Z,10.10
2023-02-04T10:48:30.123Z,9.73
2023-02-04T10:50:58.459Z,9.27
2023-02-04T10:53:44.078Z,9.80
2023-02-04T10:56:17.715Z,10.40
2023-02-04T10:58:46.940Z,10.57
2023-02-04T11:01:16.698Z,10.15
2023-02-04T11:03:47.772Z,10.80
2023-02-04T11:06:20.527Z,9.82
2023-02-04T11:08:48.552Z,9.88
2023-02-04T11:11:18.826Z,10.63
2023-02-04T11:14:02.076Z,11.30
2023-02-04T11:16:32.850Z,10.50
2023-02-04T11:19:02.554Z,11.18
2023-02-04T11:21:42.903Z,10.50
2023-02-04T11:24:25.477Z,11.13
2023-02-04T11:26:54.606Z,10.68
2023-02-04T11:29:34.876Z,11.05
2023-02-04T11:32:05.532Z,11.50
2023-02-04T11:34:46.795Z,11.17
2023-02-04T11:37:36.757Z,11.05
2023-02-04T11:40:18.464Z,11.35
2023-02-04T11:42:46.263Z,11.52
2023-02-04T11:45:17.976Z,10.82
2023-02-04T11:47:45.832Z,9.70
2023-02-04T11:50:17.441Z,10.83
2023-02-04T11:52:45.148Z,10.23
2023-02-04T11:55:13.731Z,8.65
2023-02-04T11:57:42.274Z,8.88
2023-02-04T12:00:16.537Z,9.27
2023-02-04T12:02:46.329Z,9.13
2023-02-04T12:05:15.842Z,10.20
2023-02-04T12:07:44.086Z,8.55
2023-02-04T12:10:14.931Z,9.60
2023-02-04T12:12:44.944Z,9.70
2023-02-04T12:15:19.612Z,8.93
2023-02-04T12:17:47.459Z,9.63
2023-02-04T12:20:15.793Z,9.80
2023-02-04T12:22:43.778Z,8.85
2023-02-04T12:25:16.792Z,8.10
2023-02-04T12:27:44.630Z,8.43
2023-02-04T12:30:13.551Z,7.80
2023-02-04T12:32:42.721Z,7.55
2023-02-04T12:35:10.467Z,7.97
2023-02-04T12:37:38.200Z,8.25
2023-02-04T12:40:06.915Z,7.55
2023-02-04T12:42:34.677Z,7.30
2023-02-04T12:45:02.383Z,7.47
2023-02-04T12:47:30.110Z,6.85
2023-02-04T12:49:59.200Z,7.50
2023-02-04T12:52:26.986Z,6.88
2023-02-04T12:54:54.705Z,6.82
2023-02-04T12:57:22.419Z,7.53
2023-02-04T12:59:50.275Z,7.05
2023-02-04T13:02:18.028Z,7.50
2023-02-04T13:04:45.907Z,6.80
2023-02-04T13:07:15.005Z,6.38
2023-02-04T13:09:42.729Z,6.78
2023-02-04T13:12:10.444Z,6.60
2023-02-04T13:14:38.181Z,6.50
2023-02-04T13:17:05.865Z,6.80
2023-02-04T13:19:33.628Z,6.47
2023-02-04T13:22:01.583Z,5.28
2023-02-04T13:24:30.845Z,6.03
2023-02-04T13:26:58.570Z,6.60
2023-02-04T13:29:26.705Z,7.35
2023-02-04T13:31:54.552Z,7.95
2023-02-04T13:34:22.333Z,8.27
2023-02-04T13:36:50.074Z,5.72
2023-02-04T13:39:17.829Z,5.63
2023-02-04T13:41:47.338Z,6.03
2023-02-04T13:44:15.052Z,6.68
2023-02-04T13:46:42.849Z,6.28
2023-02-04T13:49:10.562Z,6.18
2023-02-04T13:51:38.331Z,6.32
2023-02-04T13:54:06.156Z,6.38
2023-02-04T13:56:33.968Z,5.50
2023-02-04T13:59:03.085Z,7.15
2023-02-04T14:01:31.346Z,8.50
2023-02-04T14:03:59.127Z,5.88
2023-02-04T14:06:33.281Z,6.63
2023-02-04T14:09:01.287Z,5.72
2023-02-04T14:11:29.644Z,5.60
2023-02-04T14:13:57.640Z,5.78
2023-02-04T14:16:26.952Z,5.93
2023-02-04T14:18:54.810Z,6.20
2023-02-04T14:21:23.216Z,5.95
2023-02-04T14:23:51.030Z,6.40
2023-02-04T14:26:18.766Z,5.28
2023-02-04T14:28:46.640Z,5.50
2023-02-04T14:31:14.373Z,5.85
2023-02-04T14:33:43.664Z,6.35
2023-02-04T14:36:11.731Z,5.00
2023-02-04T14:38:40.462Z,5.70
2023-02-04T14:41:08.241Z,5.10
2023-02-04T14:43:37.294Z,5.00
2023-02-04T14:46:06.024Z,5.57
2023-02-04T14:48:34.317Z,5.85
2023-02-04T14:51:03.410Z,5.28
2023-02-04T14:53:31.482Z,5.40
2023-02-04T14:55:59.191Z,5.80
2023-02-04T14:58:28.050Z,5.35
2023-02-04T15:00:55.989Z,5.75
2023-02-04T15:03:23.963Z,6.30
2023-02-04T15:05:51.810Z,6.53
2023-02-04T15:08:21.058Z,6.30
2023-02-04T15:10:48.817Z,6.65
2023-02-04T15:13:16.666Z,7.70
2023-02-04T15:15:44.426Z,5.65
2023-02-04T15:18:13.904Z,5.70
2023-02-04T15:20:41.588Z,4.93
2023-02-04T15:23:13.020Z,5.28
2023-02-04T15:25:42.256Z,4.72
2023-02-04T15:28:12.036Z,5.90
2023-02-04T15:30:40.151Z,5.82
2023-02-04T15:33:07.935Z,5.47
2023-02-04T15:35:35.696Z,5.35
2023-02-04T15:38:03.351Z,5.30
2023-02-04T15:40:31.541Z,5.47
2023-02-04T15:43:01.061Z,5.70
2023-02-04T15:45:28.775Z,5.18
2023-02-04T15:47:56.599Z,5.07
2023-02-04T15:50:24.406Z,4.93
2023-02-04T15:52:52.133Z,5.15
2023-02-04T15:55:19.868Z,5.13
2023-02-04T15:57:47.502Z,5.50
2023-02-04T16:00:17.571Z,4.80
2023-02-04T16:02:45.466Z,4.82
2023-02-04T16:05:13.247Z,5.10
2023-02-04T16:07:41.120Z,5.65
2023-02-04T16:10:08.988Z,5.35
2023-02-04T16:12:36.731Z,5.05
2023-02-04T16:15:04.755Z,6.13
2023-02-04T16:17:33.931Z,4.85
2023-02-04T16:20:01.790Z,4.50
2023-02-04T16:22:29.653Z,4.80
2023-02-04T16:24:57.359Z,4.55
2023-02-04T16:27:25.459Z,5.00
2023-02-04T16:29:54.411Z,4.60
2023-02-04T16:32:23.094Z,5.68
2023-02-04T16:34:52.702Z,5.77
2023-02-04T16:37:20.599Z,6.70
2023-02-04T16:39:49.009Z,9.43
2023-02-04T16:42:16.810Z,9.70
2023-02-04T16:44:44.759Z,8.77
2023-02-04T16:47:12.732Z,8.57
2023-02-04T16:49:40.552Z,7.07
2023-02-04T16:52:09.620Z,6.40
2023-02-04T16:54:37.409Z,6.70
2023-02-04T16:57:05.274Z,6.22
2023-02-04T16:59:35.648Z,5.53
2023-02-04T17:02:03.422Z,5.40
2023-02-04T17:04:32.350Z,6.18
2023-02-04T17:07:00.652Z,5.90
2023-02-04T17:11:27.830Z,6.22
2023-02-04T17:13:55.563Z,6.63
2023-02-04T17:16:23.374Z,6.50
2023-02-04T17:18:51.260Z,20.38
2023-02-04T17:21:18.993Z,27.80
2023-02-04T17:23:46.707Z,38.28
2023-02-04T17:26:16.001Z,91.60
2023-02-04T17:28:43.700Z,94.77
2023-02-04T17:31:11.628Z,90.35
2023-02-04T17:33:39.444Z,96.30
2023-02-04T17:36:07.920Z,60.97
2023-02-04T17:39:40.305Z,31.60
2023-02-04T17:42:07.974Z,21.60
2023-02-04T17:44:35.636Z,20.50
2023-02-04T17:47:04.166Z,17.52
2023-02-04T17:49:33.654Z,20.55
2023-02-04T17:52:02.019Z,29.43
2023-02-04T17:54:29.831Z,30.83
2023-02-04T17:58:27.044Z,28.73
2023-02-04T18:00:57.723Z,28.55
2023-02-04T18:03:28.352Z,24.33
2023-02-04T18:05:57.298Z,16.38
2023-02-04T18:08:26.252Z,15.38
2023-02-04T18:12:30.653Z,15.20
2023-02-04T18:14:59.953Z,17.63
2023-02-04T18:17:29.470Z,18.05
2023-02-04T18:19:57.253Z,15.33
2023-02-04T18:22:28.376Z,13.95
2023-02-04T18:24:56.239Z,13.02
2023-02-04T18:27:25.341Z,14.93
2023-02-04T18:29:56.507Z,14.85
2023-02-04T18:32:25.579Z,14.38
2023-02-04T18:34:54.924Z,14.95
2023-02-04T18:37:30.636Z,21.83
2023-02-04T18:40:02.014Z,21.23
2023-02-04T18:42:29.703Z,19.85
2023-02-04T18:44:58.932Z,21.35
2023-02-04T18:47:31.573Z,19.50
2023-02-04T18:50:01.002Z,18.85
2023-02-04T18:52:30.313Z,18.25
2023-02-04T18:54:59.013Z,17.75
2023-02-04T18:57:35.758Z,18.05
2023-02-04T19:00:27.645Z,15.02
2023-02-04T19:02:57.315Z,14.13
2023-02-04T19:05:33.654Z,15.02
2023-02-04T19:08:28.107Z,14.45
2023-02-04T19:10:57.334Z,16.23
2023-02-04T19:13:27.506Z,18.35
2023-02-04T19:16:02.555Z,18.27
2023-02-04T19:18:34.404Z,17.20
2023-02-04T19:21:17.999Z,16.20
2023-02-04T19:23:45.984Z,16.73
2023-02-04T19:26:29.824Z,24.25
2023-02-04T19:28:57.938Z,30.25
2023-02-04T19:31:30.838Z,32.13
2023-02-04T19:33:58.568Z,34.80
2023-02-04T19:36:31.429Z,33.63
2023-02-04T19:39:01.243Z,28.93
2023-02-04T19:41:32.349Z,25.30
2023-02-04T19:44:29.250Z,25.25
2023-02-04T19:47:18.971Z,29.65
2023-02-04T19:49:46.697Z,26.05
2023-02-04T19:52:25.677Z,22.70
2023-02-04T19:54:53.370Z,21.43
2023-02-04T19:57:24.463Z,20.58
2023-02-04T19:59:52.913Z,23.50
2023-02-04T20:02:31.521Z,25.33
2023-02-04T20:04:59.291Z,25.27
2023-02-04T20:07:28.477Z,24.77
2023-02-04T20:10:04.578Z,20.77
2023-02-04T20:12:33.829Z,20.98
2023-02-04T20:15:02.392Z,21.15
2023-02-04T20:17:40.562Z,21.17
2023-02-04T20:20:23.832Z,21.67
2023-02-04T20:22:53.533Z,24.92
2023-02-04T20:25:35.860Z,24.45
2023-02-04T20:28:12.085Z,21.33
2023-02-04T20:30:43.000Z,20.23
2023-02-04T20:33:48.417Z,20.67
2023-02-04T20:36:43.139Z,19.60
2023-02-04T20:39:33.782Z,17.08
2023-02-04T20:42:22.043Z,18.45
2023-02-04T20:44:49.836Z,17.73
2023-02-04T20:47:19.578Z,14.85
2023-02-04T20:49:56.389Z,17.85
2023-02-04T20:53:03.513Z,19.20
2023-02-04T20:55:33.224Z,17.03
2023-02-04T20:58:15.864Z,16.55
2023-02-04T21:00:44.352Z,15.80
2023-02-04T21:03:22.253Z,13.20
2023-02-04T21:05:52.503Z,12.68
2023-02-04T21:08:29.641Z,11.82
2023-02-04T21:10:59.838Z,11.57
2023-02-04T21:13:27.727Z,12.20
2023-02-04T21:15:55.668Z,12.50
2023-02-04T21:18:23.402Z,21.58
2023-02-04T21:20:52.563Z,27.83
2023-02-04T21:23:20.735Z,43.85
2023-02-04T21:25:48.560Z,43.75
2023-02-04T21:28:16.572Z,45.80
2023-02-04T21:30:44.346Z,29.60
2023-02-04T21:33:12.113Z,45.30
2023-02-04T21:35:40.199Z,31.83
2023-02-04T21:38:09.479Z,45.45
2023-02-04T21:40:38.793Z,45.83
2023-02-04T21:43:08.189Z,46.05
2023-02-04T21:45:36.946Z,24.60
2023-02-04T21:48:05.513Z,25.88
2023-02-04T21:50:34.000Z,18.80
2023-02-04T21:53:01.703Z,23.23
2023-02-04T21:55:31.103Z,13.73
2023-02-04T21:57:58.995Z,14.75
2023-02-04T22:00:26.821Z,14.68
2023-02-04T22:02:55.080Z,13.45
2023-02-04T22:05:23.439Z,12.13
2023-02-04T22:07:51.461Z,12.52
2023-02-04T22:10:21.120Z,11.98
2023-02-04T22:12:50.409Z,12.85
2023-02-04T22:15:18.334Z,12.43
2023-02-04T22:17:46.421Z,12.80
2023-02-04T22:20:15.593Z,12.33
2023-02-04T22:22:44.331Z,13.00
2023-02-04T22:25:12.656Z,13.07
2023-02-04T22:27:40.483Z,13.40
2023-02-04T22:30:12.454Z,13.38
2023-02-04T22:32:40.499Z,15.05
2023-02-04T22:35:09.985Z,20.65
2023-02-04T22:37:37.841Z,22.00
2023-02-04T22:40:06.275Z,18.43
2023-02-04T22:42:34.005Z,16.80
2023-02-04T22:45:02.530Z,13.53
2023-02-04T22:47:31.979Z,13.02
2023-02-04T22:49:59.660Z,14.20
2023-02-04T22:52:27.444Z,12.98
2023-02-04T22:54:55.178Z,13.50
2023-02-04T22:57:22.821Z,12.97
2023-02-04T22:59:50.497Z,12.18
2023-02-04T23:02:18.347Z,13.07
2023-02-04T23:04:47.536Z,15.90
2023-02-04T23:07:15.246Z,17.35
2023-02-04T23:09:42.987Z,15.93
2023-02-04T23:12:13.821Z,16.23
2023-02-04T23:14:42.402Z,15.30
2023-02-04T23:17:10.455Z,15.38
2023-02-04T23:19:38.421Z,15.30
2023-02-04T23:22:07.879Z,15.38
2023-02-04T23:24:35.777Z,15.18
2023-02-04T23:27:04.160Z,15.02
2023-02-04T23:29:35.153Z,16.42
2023-02-04T23:32:03.378Z,15.23
2023-02-04T23:34:31.268Z,14.75
2023-02-04T23:36:58.935Z,14.25
2023-02-04T23:39:28.266Z,14.73
2023-02-04T23:41:56.013Z,14.95
2023-02-04T23:44:23.824Z,15.05
2023-02-04T23:46:51.812Z,14.70
2023-02-04T23:49:19.540Z,14.93
2023-02-04T23:51:47.292Z,14.32
2023-02-04T23:54:15.013Z,13.65
2023-02-04T23:56:44.135Z,12.83
2023-02-04T23:59:11.863Z,13.37
